createdAt,value
2022-10-18T00:00:31.960Z,12.67
2022-10-18T00:06:10.943Z,12.72
2022-10-18T00:11:32.628Z,12.83
2022-10-18T00:16:53.525Z,12.94
2022-10-18T00:22:14.198Z,12.84
2022-10-18T00:27:35.883Z,12.77
2022-10-18T00:32:56.434Z,12.74
2022-10-18T00:38:17.078Z,12.73
2022-10-18T00:44:00.757Z,12.71
2022-10-18T00:49:34.349Z,12.65
2022-10-18T00:54:56.756Z,12.78
2022-10-18T01:00:18.648Z,12.69
2022-10-18T01:05:45.118Z,12.64
2022-10-18T01:11:39.103Z,12.67
2022-10-18T01:17:01.554Z,12.72
2022-10-18T01:22:36.698Z,12.56
2022-10-18T01:28:12.479Z,12.53
2022-10-18T01:33:41.581Z,12.43
2022-10-18T01:39:07.141Z,12.52
2022-10-18T01:44:31.977Z,12.60
2022-10-18T01:49:59.292Z,12.50
2022-10-18T01:55:25.649Z,12.39
2022-10-18T02:00:52.242Z,12.39
2022-10-18T02:06:27.122Z,12.46
2022-10-18T02:11:53.925Z,12.46
2022-10-18T02:17:16.452Z,12.48
2022-10-18T02:22:40.928Z,12.31
2022-10-18T02:28:05.396Z,12.31
2022-10-18T02:33:34.616Z,12.09
2022-10-18T02:39:03.146Z,12.12
2022-10-18T02:44:24.318Z,12.05
2022-10-18T02:49:44.842Z,12.01
2022-10-18T02:55:07.012Z,11.93
2022-10-18T03:00:27.669Z,12.00
2022-10-18T03:05:52.404Z,11.95
2022-10-18T03:11:13.274Z,11.85
2022-10-18T03:16:34.321Z,11.95
2022-10-18T03:21:55.139Z,12.01
2022-10-18T03:27:15.754Z,11.97
2022-10-18T03:32:36.303Z,12.04
2022-10-18T03:37:56.829Z,11.85
2022-10-18T03:43:17.445Z,11.67
2022-10-18T03:48:38.089Z,11.69
2022-10-18T03:53:58.565Z,11.54
2022-10-18T03:59:19.346Z,11.64
2022-10-18T04:04:39.972Z,11.62
2022-10-18T04:10:00.881Z,11.44
2022-10-18T04:15:21.466Z,11.64
2022-10-18T04:20:42.139Z,11.61
2022-10-18T04:26:02.776Z,11.47
2022-10-18T04:31:23.514Z,11.35
2022-10-18T04:36:43.993Z,11.26
2022-10-18T04:42:04.755Z,11.21
2022-10-18T04:47:25.287Z,11.15
2022-10-18T04:52:45.975Z,11.25
2022-10-18T04:58:06.575Z,11.23
2022-10-18T05:03:27.315Z,11.16
2022-10-18T05:08:47.899Z,11.20
2022-10-18T05:14:10.269Z,11.17
2022-10-18T05:19:31.343Z,11.12
2022-10-18T05:24:51.834Z,11.12
2022-10-18T05:30:12.613Z,11.13
2022-10-18T05:35:33.789Z,11.24
2022-10-18T05:40:54.422Z,11.23
2022-10-18T05:46:15.819Z,11.26
2022-10-18T05:51:36.842Z,11.24
2022-10-18T05:56:57.696Z,11.26
2022-10-18T06:02:18.397Z,11.24
2022-10-18T06:07:39.000Z,11.18
2022-10-18T06:12:59.529Z,11.19
2022-10-18T06:18:20.094Z,11.25
2022-10-18T06:23:41.114Z,11.33
2022-10-18T06:29:02.212Z,11.29
2022-10-18T06:34:22.944Z,11.36
2022-10-18T06:39:43.532Z,11.35
2022-10-18T06:45:05.083Z,11.41
2022-10-18T06:50:25.833Z,11.46
2022-10-18T06:55:46.962Z,11.64
2022-10-18T07:01:10.013Z,11.85
2022-10-18T07:06:30.453Z,11.94
2022-10-18T07:11:52.835Z,11.80
2022-10-18T07:17:14.264Z,11.74
2022-10-18T07:22:35.049Z,11.49
2022-10-18T07:27:56.060Z,11.37
2022-10-18T07:33:16.837Z,11.41
2022-10-18T07:38:37.658Z,11.56
2022-10-18T07:43:58.221Z,11.80
2022-10-18T07:49:18.848Z,11.88
2022-10-18T07:54:39.447Z,11.77
2022-10-18T08:00:00.110Z,11.69
2022-10-18T08:05:20.758Z,11.82
2022-10-18T08:10:41.537Z,11.86
2022-10-18T08:16:13.360Z,11.97
2022-10-18T08:21:34.297Z,12.24
2022-10-18T08:26:55.066Z,12.35
2022-10-18T08:32:15.760Z,12.59
2022-10-18T08:37:36.371Z,12.90
2022-10-18T08:43:04.839Z,13.14
2022-10-18T08:48:35.676Z,13.33
2022-10-18T08:54:26.061Z,13.45
2022-10-18T08:59:46.661Z,13.59
2022-10-18T09:05:29.544Z,13.75
2022-10-18T09:11:09.103Z,13.96
2022-10-18T09:16:32.983Z,14.10
2022-10-18T09:21:57.638Z,14.25
2022-10-18T09:27:20.834Z,14.33
2022-10-18T09:32:51.740Z,14.36
2022-10-18T09:38:16.757Z,14.50
2022-10-18T09:43:48.379Z,14.64
2022-10-18T09:49:32.763Z,14.84
2022-10-18T09:55:01.493Z,15.04
2022-10-18T10:00:31.383Z,15.25
2022-10-18T10:06:02.750Z,15.35
2022-10-18T10:11:31.505Z,15.47
2022-10-18T10:16:57.653Z,15.57
2022-10-18T10:22:41.583Z,15.57
2022-10-18T10:28:06.389Z,15.47
2022-10-18T10:33:37.556Z,15.45
2022-10-18T10:39:11.793Z,15.44
2022-10-18T10:44:36.752Z,15.44
2022-10-18T10:49:57.685Z,15.42
2022-10-18T10:55:34.537Z,15.41
2022-10-18T11:00:58.011Z,15.47
2022-10-18T11:06:57.666Z,15.55
2022-10-18T11:12:27.928Z,15.66
2022-10-18T11:18:11.690Z,15.68
2022-10-18T11:23:34.104Z,15.67
2022-10-18T11:29:23.918Z,15.61
2022-10-18T11:35:03.055Z,15.74
2022-10-18T11:40:26.984Z,15.83
2022-10-18T11:45:59.938Z,15.83
2022-10-18T11:51:50.251Z,15.92
2022-10-18T11:57:41.601Z,15.96
2022-10-18T12:03:02.121Z,16.07
2022-10-18T12:08:31.708Z,16.13
2022-10-18T12:13:57.844Z,16.11
2022-10-18T12:19:26.430Z,16.20
2022-10-18T12:24:48.298Z,16.19
2022-10-18T12:30:29.082Z,16.38
2022-10-18T12:35:59.172Z,16.66
2022-10-18T12:41:26.797Z,16.85
2022-10-18T12:46:52.266Z,16.86
2022-10-18T12:52:23.579Z,16.90
2022-10-18T12:57:53.629Z,16.91
2022-10-18T13:03:17.857Z,16.96
2022-10-18T13:08:42.172Z,17.03
2022-10-18T13:14:11.957Z,17.14
2022-10-18T13:19:32.364Z,17.26
2022-10-18T13:25:17.911Z,17.42
2022-10-18T13:30:55.565Z,17.56
2022-10-18T13:36:25.339Z,17.62
2022-10-18T13:41:45.963Z,17.62
2022-10-18T13:47:13.848Z,17.68
2022-10-18T13:53:03.410Z,17.75
2022-10-18T13:58:53.826Z,17.78
2022-10-18T14:04:39.237Z,17.82
2022-10-18T14:10:04.105Z,17.88
2022-10-18T14:15:39.543Z,17.85
2022-10-18T14:21:13.659Z,17.66
2022-10-18T14:26:35.997Z,17.60
2022-10-18T14:31:58.059Z,17.75
2022-10-18T14:37:36.533Z,17.70
2022-10-18T14:42:57.031Z,17.62
2022-10-18T14:48:22.373Z,17.60
2022-10-18T14:53:43.170Z,17.47
2022-10-18T14:59:11.636Z,16.93
2022-10-18T15:04:35.175Z,16.11
2022-10-18T15:09:59.001Z,15.49
2022-10-18T15:15:22.238Z,15.32
2022-10-18T15:20:43.474Z,15.10
2022-10-18T15:26:11.570Z,14.94
2022-10-18T15:31:35.985Z,14.84
2022-10-18T15:36:56.918Z,14.60
2022-10-18T15:42:37.339Z,14.44
2022-10-18T15:48:02.263Z,14.44
2022-10-18T15:53:23.708Z,14.57
2022-10-18T15:58:46.451Z,14.53
2022-10-18T16:04:32.990Z,14.42
2022-10-18T16:09:53.951Z,14.35
2022-10-18T16:15:14.975Z,14.30
2022-10-18T16:20:35.669Z,14.31
2022-10-18T16:25:57.024Z,14.28
2022-10-18T16:31:21.054Z,14.30
2022-10-18T16:36:41.984Z,14.34
2022-10-18T16:42:03.205Z,14.41
2022-10-18T16:47:24.259Z,14.56
2022-10-18T16:52:45.344Z,14.62
2022-10-18T16:58:06.909Z,14.69
2022-10-18T17:03:28.155Z,14.57
2022-10-18T17:08:49.855Z,14.58
2022-10-18T17:14:10.785Z,14.55
2022-10-18T17:19:31.706Z,14.59
2022-10-18T17:24:52.754Z,14.48
2022-10-18T17:30:14.926Z,14.43
2022-10-18T17:35:35.737Z,14.41
2022-10-18T17:40:57.196Z,14.38
2022-10-18T17:46:19.695Z,14.32
2022-10-18T17:51:41.668Z,14.36
2022-10-18T17:57:02.529Z,14.25
2022-10-18T18:02:23.320Z,14.27
2022-10-18T18:07:44.349Z,14.24
2022-10-18T18:13:05.408Z,14.18
2022-10-18T18:18:26.340Z,14.20
2022-10-18T18:23:47.713Z,14.23
2022-10-18T18:29:13.109Z,14.25
2022-10-18T18:34:36.675Z,14.28
2022-10-18T18:39:57.286Z,14.36
2022-10-18T18:45:18.077Z,14.44
2022-10-18T18:50:38.909Z,14.44
2022-10-18T18:56:06.086Z,14.49
2022-10-18T19:01:32.100Z,14.39
2022-10-18T19:06:52.727Z,14.30
2022-10-18T19:12:16.297Z,14.27
2022-10-18T19:17:38.859Z,14.32
2022-10-18T19:22:59.618Z,14.28
2022-10-18T19:28:20.336Z,14.33
2022-10-18T19:33:48.156Z,14.45
2022-10-18T19:39:18.476Z,14.52
2022-10-18T19:44:40.975Z,14.48
2022-10-18T19:50:01.862Z,14.50
2022-10-18T19:55:22.571Z,14.48
2022-10-18T20:00:43.154Z,14.41
2022-10-18T20:06:04.227Z,14.50
2022-10-18T20:11:27.206Z,14.45
2022-10-18T20:16:48.205Z,14.45
2022-10-18T20:22:08.793Z,14.48
2022-10-18T20:27:30.807Z,14.61
2022-10-18T20:32:53.170Z,14.68
2022-10-18T20:38:13.777Z,14.45
2022-10-18T20:43:35.383Z,14.34
2022-10-18T20:48:56.332Z,14.24
2022-10-18T20:54:17.228Z,14.07
2022-10-18T20:59:38.025Z,14.01
2022-10-18T21:04:58.854Z,14.02
2022-10-18T21:10:19.587Z,14.03
2022-10-18T21:15:40.219Z,14.02
2022-10-18T21:21:09.355Z,14.08
2022-10-18T21:26:30.429Z,14.06
2022-10-18T21:31:55.271Z,14.08
2022-10-18T21:37:16.257Z,14.02
2022-10-18T21:42:37.373Z,13.96
2022-10-18T21:48:00.114Z,13.98
2022-10-18T21:53:22.364Z,13.99
2022-10-18T21:58:44.131Z,13.96
2022-10-18T22:04:07.296Z,13.88
2022-10-18T22:09:28.422Z,13.79
2022-10-18T22:14:49.162Z,13.64
2022-10-18T22:20:12.252Z,13.55
2022-10-18T22:25:36.233Z,13.52
2022-10-18T22:30:57.143Z,13.50
2022-10-18T22:36:17.814Z,13.56
2022-10-18T22:41:38.764Z,13.61
2022-10-18T22:47:00.463Z,13.62
2022-10-18T22:52:21.575Z,13.65
2022-10-18T22:57:42.012Z,13.54
2022-10-18T23:03:02.711Z,13.56
2022-10-18T23:08:23.601Z,13.56
2022-10-18T23:13:44.794Z,13.60
2022-10-18T23:19:05.574Z,13.71
2022-10-18T23:24:26.154Z,13.87
2022-10-18T23:29:46.876Z,13.76
2022-10-18T23:35:07.821Z,13.61
2022-10-18T23:40:28.883Z,13.64
2022-10-18T23:45:49.483Z,13.66
2022-10-18T23:51:10.249Z,13.55
2022-10-18T23:56:31.119Z,13.51
